createdAt,value
2018-09-19T00:00:29.379Z,0.00
2018-09-19T00:01:29.363Z,0.00
2018-09-19T00:02:29.347Z,0.00
2018-09-19T00:03:29.345Z,0.00
2018-09-19T00:04:29.373Z,0.00
2018-09-19T00:05:29.337Z,0.00
2018-09-19T00:06:29.335Z,0.00
2018-09-19T00:07:29.301Z,0.00
2018-09-19T00:08:29.321Z,0.00
2018-09-19T00:09:29.285Z,0.00
2018-09-19T00:10:29.285Z,0.00
2018-09-19T00:11:29.252Z,0.00
2018-09-19T00:12:29.244Z,0.00
2018-09-19T00:13:29.231Z,0.00
2018-09-19T00:14:29.231Z,0.00
2018-09-19T00:15:29.249Z,0.00
2018-09-19T00:16:29.213Z,0.00
2018-09-19T00:17:29.197Z,0.00
2018-09-19T00:18:29.202Z,0.00
2018-09-19T00:19:29.198Z,0.00
2018-09-19T00:20:29.164Z,0.00
2018-09-19T00:21:29.161Z,0.00
2018-09-19T00:22:29.149Z,0.00
2018-09-19T00:23:29.137Z,0.00
2018-09-19T00:24:29.155Z,0.00
2018-09-19T00:25:29.107Z,0.00
2018-09-19T00:26:29.098Z,0.00
2018-09-19T00:27:29.098Z,0.00
2018-09-19T00:28:29.106Z,0.00
2018-09-19T00:29:29.061Z,0.00
2018-09-19T00:30:29.059Z,0.00
2018-09-19T00:31:29.042Z,0.00
2018-09-19T00:32:29.056Z,0.00
2018-09-19T00:33:29.017Z,0.00
2018-09-19T00:34:29.043Z,0.00
2018-09-19T00:35:29.044Z,0.00
2018-09-19T00:36:29.000Z,0.00
2018-09-19T00:37:28.980Z,0.00
2018-09-19T00:38:29.026Z,0.00
2018-09-19T00:39:28.963Z,0.00
2018-09-19T00:40:28.967Z,0.00
2018-09-19T00:41:28.941Z,0.00
2018-09-19T00:42:28.950Z,0.00
2018-09-19T00:43:28.908Z,0.00
2018-09-19T00:44:28.912Z,0.00
2018-09-19T00:45:28.899Z,0.00
2018-09-19T00:46:28.891Z,0.00
2018-09-19T00:47:28.877Z,0.00
2018-09-19T00:48:28.880Z,0.00
2018-09-19T00:49:28.854Z,0.00
2018-09-19T00:50:28.848Z,0.00
2018-09-19T00:51:28.861Z,0.00
2018-09-19T00:52:28.855Z,0.00
2018-09-19T00:53:28.807Z,0.00
2018-09-19T00:54:28.815Z,0.00
2018-09-19T00:55:28.817Z,0.00
2018-09-19T00:56:28.777Z,0.00
2018-09-19T00:57:28.782Z,0.00
2018-09-19T00:58:28.771Z,0.00
2018-09-19T00:59:28.764Z,0.00
2018-09-19T01:00:28.759Z,0.00
2018-09-19T01:01:28.767Z,0.00
2018-09-19T01:02:28.778Z,0.00
2018-09-19T01:03:28.697Z,0.00
2018-09-19T01:04:28.693Z,0.00
2018-09-19T01:05:28.720Z,0.00
2018-09-19T01:06:28.671Z,0.00
2018-09-19T01:07:28.660Z,0.00
2018-09-19T01:08:28.670Z,0.00
2018-09-19T01:09:28.637Z,0.00
2018-09-19T01:10:28.632Z,0.00
2018-09-19T01:11:28.619Z,0.00
2018-09-19T01:12:28.604Z,0.00
2018-09-19T01:13:28.600Z,0.00
2018-09-19T01:14:28.583Z,0.00
2018-09-19T01:15:28.682Z,0.00
2018-09-19T01:16:28.599Z,0.00
2018-09-19T01:17:28.549Z,0.00
2018-09-19T01:18:28.554Z,0.00
2018-09-19T01:19:28.535Z,0.00
2018-09-19T01:20:28.525Z,0.00
2018-09-19T01:21:28.518Z,0.00
2018-09-19T01:22:28.499Z,0.00
2018-09-19T01:23:28.477Z,0.00
2018-09-19T01:24:28.473Z,0.00
2018-09-19T01:25:28.466Z,0.00
2018-09-19T01:26:28.468Z,0.00
2018-09-19T01:27:28.444Z,0.00
2018-09-19T01:28:28.461Z,0.00
2018-09-19T01:29:28.416Z,0.00
2018-09-19T01:30:28.409Z,0.00
2018-09-19T01:31:28.403Z,0.00
2018-09-19T01:32:28.410Z,0.00
2018-09-19T01:33:28.390Z,0.00
2018-09-19T01:34:28.392Z,0.00
2018-09-19T01:35:28.346Z,0.00
2018-09-19T01:36:28.339Z,0.00
2018-09-19T01:37:28.333Z,0.00
2018-09-19T01:38:28.356Z,0.00
2018-09-19T01:39:28.334Z,0.00
2018-09-19T01:40:28.299Z,0.00
2018-09-19T01:41:28.298Z,0.00
2018-09-19T01:42:28.290Z,0.00
2018-09-19T01:43:28.262Z,0.00
2018-09-19T01:44:28.250Z,0.00
2018-09-19T01:45:28.250Z,0.00
2018-09-19T01:46:28.257Z,0.00
2018-09-19T01:47:28.220Z,0.00
2018-09-19T01:48:28.207Z,0.00
2018-09-19T01:49:28.212Z,0.00
2018-09-19T01:50:28.217Z,0.00
2018-09-19T01:51:28.200Z,0.00
2018-09-19T01:52:28.189Z,0.00
2018-09-19T01:53:28.163Z,0.00
2018-09-19T01:54:28.156Z,0.00
2018-09-19T01:55:28.133Z,0.00
2018-09-19T01:56:28.145Z,0.00
2018-09-19T01:57:28.111Z,0.00
2018-09-19T01:58:28.105Z,0.00
2018-09-19T01:59:28.092Z,0.00
2018-09-19T02:00:28.079Z,0.00
2018-09-19T02:01:28.084Z,0.00
2018-09-19T02:02:28.089Z,0.00
2018-09-19T02:03:28.049Z,0.00
2018-09-19T02:04:28.049Z,0.00
2018-09-19T02:05:28.025Z,0.00
2018-09-19T02:06:28.030Z,0.00
2018-09-19T02:07:28.005Z,0.00
2018-09-19T02:08:27.989Z,0.00
2018-09-19T02:09:27.986Z,0.00
2018-09-19T02:10:27.965Z,0.00
2018-09-19T02:11:27.980Z,0.00
2018-09-19T02:12:27.947Z,0.00
2018-09-19T02:13:27.942Z,0.00
2018-09-19T02:14:27.950Z,0.00
2018-09-19T02:15:27.917Z,0.00
2018-09-19T02:16:27.908Z,0.00
2018-09-19T02:17:27.935Z,0.00
2018-09-19T02:18:27.887Z,0.00
2018-09-19T02:19:27.891Z,0.00
2018-09-19T02:20:27.865Z,0.00
2018-09-19T02:21:27.861Z,0.00
2018-09-19T02:22:27.852Z,0.00
2018-09-19T02:23:27.838Z,0.00
2018-09-19T02:24:27.825Z,0.00
2018-09-19T02:25:27.817Z,0.00
2018-09-19T02:26:27.801Z,0.00
2018-09-19T02:27:27.796Z,0.00
2018-09-19T02:28:27.816Z,0.00
2018-09-19T02:29:27.760Z,0.00
2018-09-19T02:30:27.753Z,0.00
2018-09-19T02:31:27.749Z,0.00
2018-09-19T02:32:27.736Z,0.00
2018-09-19T02:33:27.733Z,0.00
2018-09-19T02:34:27.708Z,0.00
2018-09-19T02:35:27.718Z,0.00
2018-09-19T02:36:27.699Z,0.00
2018-09-19T02:37:27.708Z,0.00
2018-09-19T02:38:27.669Z,0.00
2018-09-19T02:39:27.648Z,0.00
2018-09-19T02:40:27.648Z,0.00
2018-09-19T02:41:27.629Z,0.00
2018-09-19T02:42:27.634Z,0.00
2018-09-19T02:43:27.620Z,0.00
2018-09-19T02:44:27.605Z,0.00
2018-09-19T02:45:27.601Z,0.00
2018-09-19T02:46:27.584Z,0.00
2018-09-19T02:47:27.615Z,0.00
2018-09-19T02:48:27.554Z,0.00
2018-09-19T02:49:27.546Z,0.00
2018-09-19T02:50:27.565Z,0.00
2018-09-19T02:51:27.541Z,0.00
2018-09-19T02:52:27.518Z,0.00
2018-09-19T02:53:27.515Z,0.00
2018-09-19T02:54:27.493Z,0.00
2018-09-19T02:55:27.485Z,0.00
2018-09-19T02:56:27.473Z,0.00
2018-09-19T02:57:27.471Z,0.00
2018-09-19T02:58:27.469Z,0.00
2018-09-19T02:59:27.457Z,0.00
2018-09-19T03:00:27.464Z,0.00
2018-09-19T03:01:27.427Z,0.00
2018-09-19T03:02:27.416Z,0.00
2018-09-19T03:03:27.408Z,0.00
2018-09-19T03:04:27.385Z,0.00
2018-09-19T03:05:27.389Z,0.00
2018-09-19T03:06:27.373Z,0.00
2018-09-19T03:07:27.357Z,0.00
2018-09-19T03:08:27.384Z,0.00
2018-09-19T03:09:27.349Z,0.00
2018-09-19T03:10:27.320Z,0.00
2018-09-19T03:11:27.318Z,0.00
2018-09-19T03:12:27.308Z,0.00
2018-09-19T03:13:27.309Z,0.00
2018-09-19T03:14:27.284Z,0.00
2018-09-19T03:15:27.299Z,0.00
2018-09-19T03:16:27.259Z,0.00
2018-09-19T03:17:27.339Z,0.00
2018-09-19T03:18:27.235Z,0.00
2018-09-19T03:19:27.215Z,0.00
2018-09-19T03:20:27.224Z,0.00
2018-09-19T03:21:27.209Z,0.00
2018-09-19T03:22:27.199Z,0.00
2018-09-19T03:23:27.223Z,0.00
2018-09-19T03:24:27.217Z,0.00
2018-09-19T03:25:27.155Z,0.00
2018-09-19T03:26:27.161Z,0.00
2018-09-19T03:27:27.176Z,0.00
2018-09-19T03:28:27.144Z,0.00
2018-09-19T03:29:27.126Z,0.00
2018-09-19T03:30:27.131Z,0.00
2018-09-19T03:31:27.108Z,0.00
2018-09-19T03:32:27.092Z,0.00
2018-09-19T03:33:27.087Z,0.00
2018-09-19T03:34:27.063Z,0.00
2018-09-19T03:35:27.129Z,0.00
2018-09-19T03:36:27.073Z,0.00
2018-09-19T03:37:27.032Z,0.00
2018-09-19T03:38:27.037Z,0.00
2018-09-19T03:39:27.019Z,0.00
2018-09-19T03:40:27.000Z,0.00
2018-09-19T03:41:26.988Z,0.00
2018-09-19T03:42:26.997Z,0.00
2018-09-19T03:43:26.967Z,0.00
2018-09-19T03:44:26.950Z,0.00
2018-09-19T03:45:26.957Z,0.00
2018-09-19T03:46:26.946Z,0.00
2018-09-19T03:47:26.923Z,0.00
2018-09-19T03:48:26.922Z,0.00
2018-09-19T03:49:26.905Z,0.00
2018-09-19T03:50:26.939Z,0.00
2018-09-19T03:51:26.871Z,0.00
2018-09-19T03:52:26.883Z,0.00
2018-09-19T03:53:26.856Z,0.00
2018-09-19T03:54:26.847Z,0.00
2018-09-19T03:55:26.831Z,0.00
2018-09-19T03:56:26.879Z,0.00
2018-09-19T03:57:26.855Z,0.00
2018-09-19T03:58:26.809Z,0.00
2018-09-19T03:59:26.809Z,0.00
2018-09-19T04:00:26.783Z,0.00
2018-09-19T04:01:26.774Z,0.00
2018-09-19T04:02:26.776Z,0.00
2018-09-19T04:03:26.750Z,0.00
2018-09-19T04:04:26.738Z,0.00
2018-09-19T04:05:26.731Z,0.00
2018-09-19T04:06:26.714Z,0.00
2018-09-19T04:07:26.724Z,0.00
2018-09-19T04:08:26.697Z,0.00
2018-09-19T04:09:26.729Z,0.00
2018-09-19T04:10:26.672Z,0.00
2018-09-19T04:11:26.666Z,0.00
2018-09-19T04:12:26.698Z,0.00
2018-09-19T04:13:26.641Z,0.00
2018-09-19T04:14:26.633Z,0.00
2018-09-19T04:15:26.616Z,0.00
2018-09-19T04:16:26.634Z,0.00
2018-09-19T04:17:26.610Z,0.00
2018-09-19T04:18:26.589Z,0.00
2018-09-19T04:19:26.581Z,0.00
2018-09-19T04:20:26.570Z,0.00
2018-09-19T04:21:26.576Z,0.00
2018-09-19T04:22:26.568Z,0.00
2018-09-19T04:23:26.538Z,0.00
2018-09-19T04:24:26.546Z,0.00
2018-09-19T04:25:26.516Z,0.00
2018-09-19T04:26:26.516Z,0.00
2018-09-19T04:27:26.486Z,0.00
2018-09-19T04:28:26.481Z,0.00
2018-09-19T04:29:26.485Z,0.00
2018-09-19T04:30:26.463Z,0.00
2018-09-19T04:31:26.452Z,0.00
2018-09-19T04:32:26.599Z,0.00
2018-09-19T04:33:26.453Z,0.00
2018-09-19T04:34:26.503Z,0.00
2018-09-19T04:35:26.399Z,0.00
2018-09-19T04:36:26.389Z,0.00
2018-09-19T04:37:26.376Z,0.00
2018-09-19T04:38:26.365Z,0.00
2018-09-19T04:39:26.366Z,0.00
2018-09-19T04:40:26.361Z,0.00
2018-09-19T04:41:26.334Z,0.00
2018-09-19T04:42:26.325Z,0.00
2018-09-19T04:43:26.316Z,0.00
2018-09-19T04:44:26.308Z,4.00
2018-09-19T04:45:26.368Z,4.00
2018-09-19T04:46:26.288Z,0.00
2018-09-19T04:47:26.266Z,0.00
2018-09-19T04:48:26.259Z,4.00
2018-09-19T04:49:26.244Z,4.00
2018-09-19T04:50:26.244Z,4.00
2018-09-19T04:51:26.287Z,4.00
2018-09-19T04:52:26.221Z,4.00
2018-09-19T04:53:26.206Z,8.00
2018-09-19T04:54:26.199Z,8.00
2018-09-19T04:55:26.212Z,8.00
2018-09-19T04:56:26.184Z,8.00
2018-09-19T04:57:26.173Z,8.00
2018-09-19T04:58:26.150Z,12.00
2018-09-19T04:59:26.131Z,16.00
2018-09-19T05:00:26.150Z,20.00
2018-09-19T05:01:26.111Z,20.00
2018-09-19T05:02:26.121Z,24.00
2018-09-19T05:03:26.108Z,28.00
2018-09-19T05:04:26.080Z,32.00
2018-09-19T05:05:26.082Z,32.00
2018-09-19T05:06:26.059Z,40.00
2018-09-19T05:07:26.113Z,44.00
2018-09-19T05:08:26.080Z,52.00
2018-09-19T05:09:26.029Z,56.00
2018-09-19T05:10:26.005Z,64.00
2018-09-19T05:11:26.072Z,68.00
2018-09-19T05:12:25.997Z,76.00
2018-09-19T05:13:25.990Z,88.00
2018-09-19T05:14:25.961Z,92.00
2018-09-19T05:15:25.958Z,104.00
2018-09-19T05:16:25.966Z,112.00
2018-09-19T05:17:25.931Z,120.00
2018-09-19T05:18:25.936Z,132.00
2018-09-19T05:19:25.919Z,140.00
2018-09-19T05:20:25.900Z,148.00
2018-09-19T05:21:25.907Z,164.00
2018-09-19T05:22:25.910Z,176.00
2018-09-19T05:23:25.877Z,192.00
2018-09-19T05:24:25.859Z,204.00
2018-09-19T05:25:25.849Z,216.00
2018-09-19T05:26:25.849Z,232.00
2018-09-19T05:27:25.831Z,252.00
2018-09-19T05:28:25.825Z,272.00
2018-09-19T05:29:25.803Z,296.00
2018-09-19T05:30:25.792Z,320.00
2018-09-19T05:31:25.772Z,344.00
2018-09-19T05:32:25.774Z,368.00
2018-09-19T05:33:25.767Z,392.00
2018-09-19T05:34:25.737Z,412.00
2018-09-19T05:35:25.735Z,432.00
2018-09-19T05:36:25.719Z,452.00
2018-09-19T05:37:25.708Z,472.00
2018-09-19T05:38:25.703Z,488.00
2018-09-19T05:39:25.698Z,508.00
2018-09-19T05:40:25.674Z,528.00
2018-09-19T05:41:25.663Z,552.00
2018-09-19T05:42:25.660Z,580.00
2018-09-19T05:43:25.646Z,616.00
2018-09-19T05:44:25.638Z,636.00
2018-09-19T05:45:25.630Z,648.00
2018-09-19T05:46:25.641Z,668.00
2018-09-19T05:47:25.613Z,688.00
2018-09-19T05:48:25.590Z,708.00
2018-09-19T05:49:25.577Z,724.00
2018-09-19T05:50:25.585Z,728.00
2018-09-19T05:51:25.546Z,736.00
2018-09-19T05:52:25.593Z,752.00
2018-09-19T05:53:25.530Z,772.00
2018-09-19T05:54:25.604Z,796.00
2018-09-19T05:55:25.519Z,820.00
2018-09-19T05:56:25.514Z,860.00
2018-09-19T05:57:25.487Z,900.00
2018-09-19T05:58:25.492Z,936.00
2018-09-19T05:59:25.457Z,972.00
2018-09-19T06:00:25.450Z,1004.00
2018-09-19T06:01:25.442Z,1040.00
2018-09-19T06:02:25.445Z,1072.00
2018-09-19T06:03:25.416Z,1112.00
2018-09-19T06:04:25.415Z,1160.00
2018-09-19T06:05:25.395Z,1212.00
2018-09-19T06:06:25.388Z,1284.00
2018-09-19T06:07:25.418Z,1368.00
2018-09-19T06:08:25.397Z,1524.00
2018-09-19T06:09:25.352Z,1688.00
2018-09-19T06:10:25.345Z,1800.00
2018-09-19T06:11:25.324Z,1892.00
2018-09-19T06:12:25.317Z,1996.00
2018-09-19T06:13:25.309Z,2104.00
2018-09-19T06:14:25.305Z,2196.00
2018-09-19T06:15:25.290Z,2256.00
2018-09-19T06:16:25.276Z,2312.00
2018-09-19T06:17:25.276Z,2384.00
2018-09-19T06:18:25.248Z,2492.00
2018-09-19T06:19:25.270Z,2600.00
2018-09-19T06:20:25.245Z,2900.00
2018-09-19T06:21:25.225Z,2980.00
2018-09-19T06:22:25.230Z,3116.00
2018-09-19T06:23:25.196Z,2912.00
2018-09-19T06:24:25.194Z,2956.00
2018-09-19T06:25:25.190Z,2996.00
2018-09-19T06:26:25.168Z,3088.00
2018-09-19T06:27:25.161Z,3164.00
2018-09-19T06:28:25.143Z,3244.00
2018-09-19T06:29:25.137Z,3348.00
2018-09-19T06:30:25.150Z,3424.00
2018-09-19T06:31:25.106Z,3516.00
2018-09-19T06:32:25.102Z,4372.00
2018-09-19T06:33:25.107Z,5336.00
2018-09-19T06:34:25.088Z,3636.00
2018-09-19T06:35:25.070Z,3696.00
2018-09-19T06:36:25.065Z,3756.00
2018-09-19T06:37:25.043Z,3792.00
2018-09-19T06:38:25.051Z,3796.00
2018-09-19T06:39:25.027Z,3820.00
2018-09-19T06:40:25.070Z,3892.00
2018-09-19T06:41:25.005Z,3992.00
2018-09-19T06:42:24.995Z,4040.00
2018-09-19T06:43:24.998Z,4188.00
2018-09-19T06:44:24.970Z,4192.00
2018-09-19T06:45:25.008Z,4228.00
2018-09-19T06:46:24.954Z,4276.00
2018-09-19T06:47:24.940Z,4332.00
2018-09-19T06:48:24.929Z,4396.00
2018-09-19T06:49:24.926Z,4464.00
2018-09-19T06:50:24.905Z,5180.00
2018-09-19T06:51:24.901Z,4632.00
2018-09-19T06:52:24.910Z,4620.00
2018-09-19T06:53:24.881Z,4660.00
2018-09-19T06:54:24.881Z,4664.00
2018-09-19T06:55:24.846Z,4676.00
2018-09-19T06:56:24.840Z,4704.00
2018-09-19T06:57:24.826Z,4672.00
2018-09-19T06:58:24.813Z,4660.00
2018-09-19T06:59:24.823Z,4684.00
2018-09-19T07:00:24.818Z,5248.00
2018-09-19T07:01:24.787Z,6956.00
2018-09-19T07:02:24.788Z,14560.00
2018-09-19T07:03:24.760Z,12860.00
2018-09-19T07:04:24.750Z,4916.00
2018-09-19T07:05:24.744Z,4856.00
2018-09-19T07:06:24.781Z,4880.00
2018-09-19T07:07:24.717Z,4920.00
2018-09-19T07:08:24.709Z,4988.00
2018-09-19T07:09:24.700Z,5036.00
2018-09-19T07:10:24.700Z,5228.00
2018-09-19T07:11:24.683Z,5420.00
2018-09-19T07:12:24.680Z,5244.00
2018-09-19T07:13:24.657Z,10616.00
2018-09-19T07:14:24.652Z,17228.00
2018-09-19T07:15:24.632Z,0.00
2018-09-19T07:16:24.649Z,5144.00
2018-09-19T07:17:24.624Z,5120.00
2018-09-19T07:18:24.598Z,5148.00
2018-09-19T07:19:24.622Z,5180.00
2018-09-19T07:20:24.604Z,5208.00
2018-09-19T07:21:24.570Z,5172.00
2018-09-19T07:22:24.578Z,5248.00
2018-09-19T07:23:24.556Z,5316.00
2018-09-19T07:24:24.556Z,5348.00
2018-09-19T07:25:24.541Z,5364.00
2018-09-19T07:26:24.527Z,5360.00
2018-09-19T07:27:24.509Z,5424.00
2018-09-19T07:28:24.496Z,5432.00
2018-09-19T07:29:24.498Z,5452.00
2018-09-19T07:30:24.485Z,5448.00
2018-09-19T07:31:24.470Z,5504.00
2018-09-19T07:32:24.456Z,5528.00
2018-09-19T07:33:24.445Z,5588.00
2018-09-19T07:34:24.442Z,2656.00
2018-09-19T07:35:24.427Z,7952.00
2018-09-19T07:36:24.409Z,14716.00
2018-09-19T07:37:24.402Z,13632.00
2018-09-19T07:38:24.396Z,12812.00
2018-09-19T07:39:24.401Z,24736.00
2018-09-19T07:40:24.448Z,15808.00
2018-09-19T07:41:24.356Z,6988.00
2018-09-19T07:42:24.344Z,5924.00
2018-09-19T07:43:24.339Z,5968.00
2018-09-19T07:44:24.346Z,9688.00
2018-09-19T07:45:24.331Z,25824.00
2018-09-19T07:46:24.341Z,13404.00
2018-09-19T07:47:24.289Z,41536.00
2018-09-19T07:48:24.287Z,27136.00
2018-09-19T07:49:24.269Z,50560.00
2018-09-19T07:50:24.256Z,20256.00
2018-09-19T07:51:24.253Z,6660.00
2018-09-19T07:52:24.265Z,6628.00
2018-09-19T07:53:24.239Z,6656.00
2018-09-19T07:54:24.229Z,6676.00
2018-09-19T07:55:24.240Z,6796.00
2018-09-19T07:56:24.208Z,6712.00
2018-09-19T07:57:24.191Z,6840.00
2018-09-19T07:58:24.183Z,6848.00
2018-09-19T07:59:24.171Z,6856.00
2018-09-19T08:00:24.201Z,6896.00
2018-09-19T08:01:24.141Z,6928.00
2018-09-19T08:02:24.153Z,6900.00
2018-09-19T08:03:24.126Z,6848.00
2018-09-19T08:04:24.138Z,6816.00
2018-09-19T08:05:24.119Z,6756.00
2018-09-19T08:06:24.096Z,6736.00
2018-09-19T08:07:24.088Z,6652.00
2018-09-19T08:08:24.067Z,6620.00
2018-09-19T08:09:24.060Z,6576.00
2018-09-19T08:10:24.070Z,6528.00
2018-09-19T08:11:24.034Z,6484.00
2018-09-19T08:12:24.026Z,6596.00
2018-09-19T08:13:24.023Z,6500.00
2018-09-19T08:14:24.001Z,6476.00
2018-09-19T08:15:24.000Z,6452.00
2018-09-19T08:16:23.998Z,6408.00
2018-09-19T08:17:23.977Z,6416.00
2018-09-19T08:18:23.970Z,6416.00
2018-09-19T08:19:23.969Z,6404.00
2018-09-19T08:20:23.943Z,6380.00
2018-09-19T08:21:23.951Z,6348.00
2018-09-19T08:22:23.936Z,6332.00
2018-09-19T08:23:23.924Z,6332.00
2018-09-19T08:24:23.949Z,6304.00
2018-09-19T08:25:23.890Z,6244.00
2018-09-19T08:26:23.875Z,6244.00
2018-09-19T08:27:23.889Z,6256.00
2018-09-19T08:28:23.865Z,6268.00
2018-09-19T08:29:23.850Z,6232.00
2018-09-19T08:30:23.841Z,6256.00
2018-09-19T08:31:23.833Z,6276.00
2018-09-19T08:32:23.816Z,6316.00
2018-09-19T08:33:23.813Z,6328.00
2018-09-19T08:34:23.797Z,6348.00
2018-09-19T08:35:23.788Z,6356.00
2018-09-19T08:36:23.782Z,6372.00
2018-09-19T08:37:23.771Z,6368.00
2018-09-19T08:38:23.784Z,6388.00
2018-09-19T08:39:23.746Z,6372.00
2018-09-19T08:40:23.729Z,6360.00
2018-09-19T08:41:23.731Z,6376.00
2018-09-19T08:42:23.718Z,6420.00
2018-09-19T08:43:23.712Z,6436.00
2018-09-19T08:44:23.699Z,6480.00
2018-09-19T08:45:23.676Z,6520.00
2018-09-19T08:46:23.670Z,6572.00
2018-09-19T08:47:23.662Z,6656.00
2018-09-19T08:48:23.675Z,6712.00
2018-09-19T08:49:23.661Z,6812.00
2018-09-19T08:50:23.638Z,6940.00
2018-09-19T08:51:23.617Z,7052.00
2018-09-19T08:52:23.601Z,7168.00
2018-09-19T08:53:23.590Z,7272.00
2018-09-19T08:54:23.591Z,7380.00
2018-09-19T08:55:23.727Z,7468.00
2018-09-19T08:56:23.567Z,7420.00
2018-09-19T08:57:23.554Z,7420.00
2018-09-19T08:58:23.554Z,9500.00
2018-09-19T08:59:23.562Z,17760.00
2018-09-19T09:00:23.530Z,14420.00
2018-09-19T09:01:23.553Z,7260.00
2018-09-19T09:02:23.535Z,6900.00
2018-09-19T09:03:23.485Z,6812.00
2018-09-19T09:04:23.481Z,6816.00
2018-09-19T09:05:23.512Z,6744.00
2018-09-19T09:06:23.460Z,6476.00
2018-09-19T09:07:23.460Z,6088.00
2018-09-19T09:08:23.444Z,6000.00
2018-09-19T09:09:23.426Z,5780.00
2018-09-19T09:10:23.417Z,5136.00
2018-09-19T09:11:23.425Z,5688.00
2018-09-19T09:12:23.401Z,6000.00
2018-09-19T09:13:23.397Z,5856.00
2018-09-19T09:14:23.387Z,5288.00
2018-09-19T09:15:23.360Z,5420.00
2018-09-19T09:16:23.362Z,5440.00
2018-09-19T09:17:23.335Z,5500.00
2018-09-19T09:18:23.340Z,5296.00
2018-09-19T09:19:23.338Z,5376.00
2018-09-19T09:20:23.331Z,5992.00
2018-09-19T09:21:23.303Z,6096.00
2018-09-19T09:22:23.307Z,6272.00
2018-09-19T09:23:23.283Z,6464.00
2018-09-19T09:24:23.278Z,7952.00
2018-09-19T09:25:23.268Z,35072.00
2018-09-19T09:26:23.246Z,64288.00
2018-09-19T09:27:23.315Z,65344.00
2018-09-19T09:28:23.237Z,42016.00
2018-09-19T09:29:23.218Z,12944.00
2018-09-19T09:30:23.221Z,6348.00
2018-09-19T09:31:23.202Z,6240.00
2018-09-19T09:32:23.183Z,6172.00
2018-09-19T09:33:23.173Z,6140.00
2018-09-19T09:34:23.227Z,6048.00
2018-09-19T09:35:23.147Z,5968.00
2018-09-19T09:36:23.143Z,5916.00
2018-09-19T09:37:23.120Z,5872.00
2018-09-19T09:38:23.127Z,5860.00
2018-09-19T09:39:23.116Z,5880.00
2018-09-19T09:40:23.157Z,5880.00
2018-09-19T09:41:23.100Z,5864.00
2018-09-19T09:42:23.088Z,5840.00
2018-09-19T09:43:23.102Z,5828.00
2018-09-19T09:44:23.052Z,5796.00
2018-09-19T09:45:23.053Z,5796.00
2018-09-19T09:46:23.038Z,5788.00
2018-09-19T09:47:23.039Z,5820.00
2018-09-19T09:48:23.027Z,5836.00
2018-09-19T09:49:22.998Z,6052.00
2018-09-19T09:50:23.013Z,5936.00
2018-09-19T09:51:23.002Z,6008.00
2018-09-19T09:52:22.976Z,6136.00
2018-09-19T09:53:22.993Z,6308.00
2018-09-19T09:54:22.971Z,6544.00
2018-09-19T09:55:22.939Z,7832.00
2018-09-19T09:56:22.928Z,30464.00
2018-09-19T09:57:22.935Z,57024.00
2018-09-19T09:58:22.903Z,61696.00
2018-09-19T09:59:22.917Z,60320.00
2018-09-19T10:00:22.888Z,59040.00
2018-09-19T10:01:22.871Z,58144.00
2018-09-19T10:02:22.861Z,47232.00
2018-09-19T10:03:22.867Z,16768.00
2018-09-19T10:04:22.847Z,6296.00
2018-09-19T10:05:22.853Z,6276.00
2018-09-19T10:06:22.857Z,6240.00
2018-09-19T10:07:22.809Z,6232.00
2018-09-19T10:08:22.801Z,6320.00
2018-09-19T10:09:22.799Z,6400.00
2018-09-19T10:10:22.799Z,6468.00
2018-09-19T10:11:22.810Z,4596.00
2018-09-19T10:12:22.763Z,4716.00
2018-09-19T10:13:22.759Z,3636.00
2018-09-19T10:14:22.765Z,4020.00
2018-09-19T10:15:22.739Z,5124.00
2018-09-19T10:16:22.714Z,6164.00
2018-09-19T10:17:22.708Z,5992.00
2018-09-19T10:18:22.699Z,5864.00
2018-09-19T10:19:22.693Z,5800.00
2018-09-19T10:20:22.708Z,5744.00
2018-09-19T10:21:22.661Z,5596.00
2018-09-19T10:22:22.667Z,5700.00
2018-09-19T10:23:22.642Z,5868.00
2018-09-19T10:24:22.645Z,6592.00
2018-09-19T10:25:22.644Z,6504.00
2018-09-19T10:26:22.632Z,4176.00
2018-09-19T10:27:22.599Z,6992.00
2018-09-19T10:28:22.612Z,4728.00
2018-09-19T10:29:22.577Z,8096.00
2018-09-19T10:30:22.604Z,5468.00
2018-09-19T10:31:22.586Z,25440.00
2018-09-19T10:32:22.551Z,43968.00
2018-09-19T10:33:22.532Z,33952.00
2018-09-19T10:34:22.525Z,47648.00
2018-09-19T10:35:22.542Z,42912.00
2018-09-19T10:36:22.526Z,50528.00
2018-09-19T10:37:22.502Z,48576.00
2018-09-19T10:38:22.495Z,48352.00
2018-09-19T10:39:22.482Z,47456.00
2018-09-19T10:40:22.460Z,32192.00
2018-09-19T10:41:22.462Z,8216.00
2018-09-19T10:42:22.444Z,5380.00
2018-09-19T10:43:22.441Z,4540.00
2018-09-19T10:44:22.434Z,4184.00
2018-09-19T10:45:22.440Z,4180.00
2018-09-19T10:46:22.415Z,4180.00
2018-09-19T10:47:22.409Z,4200.00
2018-09-19T10:48:22.379Z,4096.00
2018-09-19T10:49:22.444Z,4036.00
2018-09-19T10:50:22.361Z,3880.00
2018-09-19T10:51:22.365Z,3824.00
2018-09-19T10:52:22.335Z,3852.00
2018-09-19T10:53:22.330Z,3716.00
2018-09-19T10:54:22.324Z,3672.00
2018-09-19T10:55:22.318Z,3708.00
2018-09-19T10:56:22.310Z,3712.00
2018-09-19T10:57:22.311Z,3628.00
2018-09-19T10:58:22.282Z,3648.00
2018-09-19T10:59:22.268Z,3620.00
2018-09-19T11:00:22.260Z,2648.00
2018-09-19T11:01:22.240Z,2592.00
2018-09-19T11:02:22.249Z,3656.00
2018-09-19T11:03:22.250Z,3652.00
2018-09-19T11:04:22.225Z,2844.00
2018-09-19T11:05:22.200Z,3804.00
2018-09-19T11:06:22.207Z,2936.00
2018-09-19T11:07:22.187Z,3768.00
2018-09-19T11:08:22.192Z,3504.00
2018-09-19T11:09:22.175Z,2992.00
2018-09-19T11:10:22.147Z,2964.00
2018-09-19T11:11:22.138Z,4232.00
2018-09-19T11:12:22.120Z,3912.00
2018-09-19T11:13:22.113Z,3028.00
2018-09-19T11:14:22.116Z,3312.00
2018-09-19T11:15:22.093Z,3776.00
2018-09-19T11:16:22.123Z,3980.00
2018-09-19T11:17:22.079Z,3300.00
2018-09-19T11:18:22.069Z,3184.00
2018-09-19T11:19:22.068Z,4472.00
2018-09-19T11:20:22.037Z,4616.00
2018-09-19T11:21:22.032Z,4292.00
2018-09-19T11:22:33.167Z,3132.00
2018-09-19T11:23:22.015Z,3020.00
2018-09-19T11:24:22.004Z,3856.00
2018-09-19T11:25:21.998Z,3680.00
2018-09-19T11:26:22.057Z,3544.00
2018-09-19T11:27:21.978Z,3244.00
2018-09-19T11:28:21.952Z,3280.00
2018-09-19T11:29:21.937Z,3512.00
2018-09-19T11:30:21.926Z,3832.00
2018-09-19T11:31:21.915Z,3092.00
2018-09-19T11:32:21.930Z,3084.00
2018-09-19T11:33:21.897Z,3548.00
2018-09-19T11:34:21.890Z,3452.00
2018-09-19T11:35:21.876Z,3612.00
2018-09-19T11:36:21.888Z,3528.00
2018-09-19T11:37:21.857Z,3300.00
2018-09-19T11:38:21.850Z,3152.00
2018-09-19T11:39:21.840Z,3112.00
2018-09-19T11:40:21.828Z,3108.00
2018-09-19T11:41:21.820Z,3016.00
2018-09-19T11:42:21.823Z,2992.00
2018-09-19T11:43:21.845Z,3044.00
2018-09-19T11:44:21.790Z,3108.00
2018-09-19T11:45:21.796Z,3176.00
2018-09-19T11:46:21.767Z,3176.00
2018-09-19T11:47:21.772Z,3136.00
2018-09-19T11:48:21.758Z,2972.00
2018-09-19T11:49:21.837Z,2948.00
2018-09-19T11:50:21.729Z,2936.00
2018-09-19T11:51:21.714Z,3016.00
2018-09-19T11:52:21.698Z,2972.00
2018-09-19T11:53:21.703Z,3096.00
2018-09-19T11:54:21.672Z,3168.00
2018-09-19T11:55:21.662Z,3244.00
2018-09-19T11:56:21.654Z,3156.00
2018-09-19T11:57:21.647Z,3164.00
2018-09-19T11:58:21.650Z,3128.00
2018-09-19T11:59:21.628Z,2616.00
2018-09-19T12:00:21.646Z,2836.00
2018-09-19T12:01:21.618Z,2952.00
2018-09-19T12:02:21.587Z,2852.00
2018-09-19T12:03:21.604Z,2732.00
2018-09-19T12:04:21.568Z,2824.00
2018-09-19T12:05:21.560Z,2908.00
2018-09-19T12:06:21.591Z,2956.00
2018-09-19T12:07:21.600Z,2864.00
2018-09-19T12:08:21.524Z,2804.00
2018-09-19T12:09:21.532Z,2728.00
2018-09-19T12:10:21.508Z,2688.00
2018-09-19T12:11:21.504Z,2704.00
2018-09-19T12:12:21.484Z,2940.00
2018-09-19T12:13:21.490Z,3036.00
2018-09-19T12:14:21.456Z,3192.00
2018-09-19T12:15:21.461Z,3300.00
2018-09-19T12:16:21.437Z,3252.00
2018-09-19T12:17:21.439Z,3084.00
2018-09-19T12:18:21.422Z,3040.00
2018-09-19T12:19:21.436Z,2928.00
2018-09-19T12:20:21.402Z,2568.00
2018-09-19T12:21:21.400Z,2712.00
2018-09-19T12:22:21.372Z,2788.00
2018-09-19T12:23:21.398Z,3060.00
2018-09-19T12:24:21.379Z,3076.00
2018-09-19T12:25:21.344Z,2900.00
2018-09-19T12:26:21.423Z,2988.00
2018-09-19T12:27:21.332Z,3120.00
2018-09-19T12:28:21.311Z,3116.00
2018-09-19T12:29:21.302Z,3212.00
2018-09-19T12:30:21.294Z,3080.00
2018-09-19T12:31:21.298Z,3000.00
2018-09-19T12:32:21.286Z,3116.00
2018-09-19T12:33:21.293Z,3144.00
2018-09-19T12:34:21.242Z,3232.00